sensor_id;sensor_type;location;lat;lon;timestamp;pressure;altitude;pressure_sealevel;temperature
74449;BMP280;62878;51.026;4.472;2022-09-24T00:00:43;-5996.28;;;17.75
74449;BMP280;62878;51.026;4.472;2022-09-24T00:03:09;-5996.22;;;17.75
74449;BMP280;62878;51.026;4.472;2022-09-24T00:05:36;-5996.22;;;17.75
74449;BMP280;62878;51.026;4.472;2022-09-24T00:08:02;-5996.22;;;17.75
74449;BMP280;62878;51.026;4.472;2022-09-24T00:10:27;-5996.28;;;17.75
74449;BMP280;62878;51.026;4.472;2022-09-24T00:12:52;-5996.47;;;17.76
74449;BMP280;62878;51.026;4.472;2022-09-24T00:15:18;-5995.72;;;17.72
74449;BMP280;62878;51.026;4.472;2022-09-24T00:17:43;-5994.19;;;17.63
74449;BMP280;62878;51.026;4.472;2022-09-24T00:20:08;-5995.38;;;17.70
74449;BMP280;62878;51.026;4.472;2022-09-24T00:22:34;-5994.88;;;17.67
74449;BMP280;62878;51.026;4.472;2022-09-24T00:24:59;-5994.09;;;17.62
74449;BMP280;62878;51.026;4.472;2022-09-24T00:27:43;-5995.13;;;17.68
74449;BMP280;62878;51.026;4.472;2022-09-24T00:30:09;-5995.38;;;17.70
74449;BMP280;62878;51.026;4.472;2022-09-24T00:32:34;-5994.78;;;17.66
74449;BMP280;62878;51.026;4.472;2022-09-24T00:34:59;-5993.00;;;17.56
74449;BMP280;62878;51.026;4.472;2022-09-24T00:37:25;-5992.25;;;17.51
74449;BMP280;62878;51.026;4.472;2022-09-24T00:39:52;-5995.88;;;17.73
74449;BMP280;62878;51.026;4.472;2022-09-24T00:42:18;-5996.63;;;17.77
74449;BMP280;62878;51.026;4.472;2022-09-24T00:44:50;-5996.56;;;17.77
74449;BMP280;62878;51.026;4.472;2022-09-24T00:47:30;-5995.03;;;17.68
74449;BMP280;62878;51.026;4.472;2022-09-24T00:52:35;-5993.09;;;17.56
74449;BMP280;62878;51.026;4.472;2022-09-24T00:55:04;-5996.47;;;17.76
74449;BMP280;62878;51.026;4.472;2022-09-24T00:57:30;-5996.56;;;17.77
74449;BMP280;62878;51.026;4.472;2022-09-24T00:59:55;-5994.28;;;17.63
74449;BMP280;62878;51.026;4.472;2022-09-24T01:02:21;-5993.28;;;17.57
74449;BMP280;62878;51.026;4.472;2022-09-24T01:04:46;-5996.63;;;17.77
74449;BMP280;62878;51.026;4.472;2022-09-24T01:07:12;-5996.63;;;17.77
74449;BMP280;62878;51.026;4.472;2022-09-24T01:09:38;-5993.59;;;17.59
74449;BMP280;62878;51.026;4.472;2022-09-24T01:15:02;-5996.72;;;17.78
74449;BMP280;62878;51.026;4.472;2022-09-24T01:31:27;-5996.63;;;17.77
74449;BMP280;62878;51.026;4.472;2022-09-24T01:33:56;-5996.47;;;17.76
74449;BMP280;62878;51.026;4.472;2022-09-24T01:36:23;-5996.56;;;17.77
74449;BMP280;62878;51.026;4.472;2022-09-24T01:38:51;-5995.97;;;17.73
74449;BMP280;62878;51.026;4.472;2022-09-24T01:41:18;-5993.69;;;17.60
74449;BMP280;62878;51.026;4.472;2022-09-24T01:43:44;-5992.84;;;17.55
74449;BMP280;62878;51.026;4.472;2022-09-24T01:46:11;-5993.00;;;17.56
74449;BMP280;62878;51.026;4.472;2022-09-24T01:48:38;-5990.84;;;17.43
74449;BMP280;62878;51.026;4.472;2022-09-24T01:51:26;-5996.22;;;17.75
74449;BMP280;62878;51.026;4.472;2022-09-24T01:53:59;-5995.47;;;17.70
74449;BMP280;62878;51.026;4.472;2022-09-24T01:56:56;-5995.78;;;17.72
74449;BMP280;62878;51.026;4.472;2022-09-24T01:59:33;-5996.38;;;17.76
74449;BMP280;62878;51.026;4.472;2022-09-24T02:02:22;-5996.22;;;17.75
74449;BMP280;62878;51.026;4.472;2022-09-24T02:04:57;-5996.22;;;17.75
74449;BMP280;62878;51.026;4.472;2022-09-24T02:10:19;-5995.97;;;17.73
74449;BMP280;62878;51.026;4.472;2022-09-24T02:12:51;-5995.03;;;17.68
74449;BMP280;62878;51.026;4.472;2022-09-24T02:15:28;-5996.03;;;17.74
74449;BMP280;62878;51.026;4.472;2022-09-24T02:17:56;-5992.25;;;17.51
74449;BMP280;62878;51.026;4.472;2022-09-24T02:20:25;-5996.03;;;17.74
74449;BMP280;62878;51.026;4.472;2022-09-24T02:22:53;-5996.22;;;17.75
74449;BMP280;62878;51.026;4.472;2022-09-24T02:25:23;-5995.88;;;17.73
74449;BMP280;62878;51.026;4.472;2022-09-24T02:27:49;-5987.56;;;17.23
74449;BMP280;62878;51.026;4.472;2022-09-24T02:30:14;-5996.22;;;17.75
74449;BMP280;62878;51.026;4.472;2022-09-24T02:32:40;-5992.34;;;17.52
74449;BMP280;62878;51.026;4.472;2022-09-24T02:35:09;-5993.28;;;17.57
74449;BMP280;62878;51.026;4.472;2022-09-24T02:37:36;-5996.03;;;17.74
74449;BMP280;62878;51.026;4.472;2022-09-24T02:40:04;-5994.69;;;17.66
74449;BMP280;62878;51.026;4.472;2022-09-24T02:42:30;-5996.03;;;17.74
74449;BMP280;62878;51.026;4.472;2022-09-24T02:44:59;-5996.03;;;17.74
74449;BMP280;62878;51.026;4.472;2022-09-24T02:47:25;-5994.19;;;17.63
74449;BMP280;62878;51.026;4.472;2022-09-24T02:49:51;-5995.13;;;17.68
74449;BMP280;62878;51.026;4.472;2022-09-24T02:52:16;-5996.03;;;17.74
74449;BMP280;62878;51.026;4.472;2022-09-24T02:54:43;-5996.03;;;17.74
74449;BMP280;62878;51.026;4.472;2022-09-24T02:57:09;-5995.72;;;17.72
74449;BMP280;62878;51.026;4.472;2022-09-24T02:59:34;-5985.44;;;17.10
74449;BMP280;62878;51.026;4.472;2022-09-24T03:02:00;-5995.63;;;17.71
74449;BMP280;62878;51.026;4.472;2022-09-24T03:04:25;-5990.00;;;17.37
74449;BMP280;62878;51.026;4.472;2022-09-24T03:06:50;-5995.72;;;17.72
74449;BMP280;62878;51.026;4.472;2022-09-24T03:09:15;-5991.66;;;17.48
74449;BMP280;62878;51.026;4.472;2022-09-24T03:11:41;-5995.63;;;17.71
74449;BMP280;62878;51.026;4.472;2022-09-24T03:14:06;-5995.53;;;17.71
74449;BMP280;62878;51.026;4.472;2022-09-24T03:16:31;-5995.47;;;17.70
74449;BMP280;62878;51.026;4.472;2022-09-24T03:18:57;-5993.19;;;17.57
74449;BMP280;62878;51.026;4.472;2022-09-24T03:21:22;-5994.28;;;17.63
74449;BMP280;62878;51.026;4.472;2022-09-24T03:23:48;-5995.53;;;17.71
74449;BMP280;62878;51.026;4.472;2022-09-24T03:26:14;-5995.47;;;17.70
74449;BMP280;62878;51.026;4.472;2022-09-24T03:28:39;-5995.47;;;17.70
74449;BMP280;62878;51.026;4.472;2022-09-24T03:31:05;-5995.63;;;17.71
74449;BMP280;62878;51.026;4.472;2022-09-24T03:33:40;-5995.47;;;17.70
74449;BMP280;62878;51.026;4.472;2022-09-24T03:36:13;-5995.53;;;17.71
74449;BMP280;62878;51.026;4.472;2022-09-24T03:38:40;-5995.13;;;17.68
74449;BMP280;62878;51.026;4.472;2022-09-24T03:41:07;-5995.19;;;17.69
74449;BMP280;62878;51.026;4.472;2022-09-24T03:43:33;-5995.13;;;17.68
74449;BMP280;62878;51.026;4.472;2022-09-24T03:46:00;-5994.63;;;17.65
74449;BMP280;62878;51.026;4.472;2022-09-24T03:48:25;-5995.19;;;17.69
74449;BMP280;62878;51.026;4.472;2022-09-24T03:50:51;-5992.69;;;17.54
74449;BMP280;62878;51.026;4.472;2022-09-24T03:53:17;-5991.06;;;17.44
74449;BMP280;62878;51.026;4.472;2022-09-24T03:55:44;-5995.19;;;17.69
74449;BMP280;62878;51.026;4.472;2022-09-24T03:58:11;-5994.88;;;17.67
74449;BMP280;62878;51.026;4.472;2022-09-24T04:00:37;-5989.81;;;17.36
74449;BMP280;62878;51.026;4.472;2022-09-24T04:03:03;-5995.19;;;17.69
74449;BMP280;62878;51.026;4.472;2022-09-24T04:05:28;-5995.03;;;17.68
74449;BMP280;62878;51.026;4.472;2022-09-24T04:07:55;-5990.56;;;17.41
74449;BMP280;62878;51.026;4.472;2022-09-24T04:10:20;-5994.88;;;17.67
74449;BMP280;62878;51.026;4.472;2022-09-24T04:12:47;-5994.88;;;17.67
74449;BMP280;62878;51.026;4.472;2022-09-24T04:15:12;-5989.56;;;17.35
74449;BMP280;62878;51.026;4.472;2022-09-24T04:17:37;-5986.19;;;17.15
74449;BMP280;62878;51.026;4.472;2022-09-24T04:20:03;-5994.53;;;17.65
74449;BMP280;62878;51.026;4.472;2022-09-24T04:22:29;-5994.53;;;17.65
74449;BMP280;62878;51.026;4.472;2022-09-24T04:24:55;-5994.63;;;17.65
74449;BMP280;62878;51.026;4.472;2022-09-24T04:27:22;-5992.44;;;17.52
74449;BMP280;62878;51.026;4.472;2022-09-24T04:29:47;-5992.25;;;17.51
74449;BMP280;62878;51.026;4.472;2022-09-24T04:32:12;-5994.34;;;17.64
74449;BMP280;62878;51.026;4.472;2022-09-24T04:34:38;-5994.44;;;17.64
74449;BMP280;62878;51.026;4.472;2022-09-24T04:37:03;-5993.19;;;17.57
74449;BMP280;62878;51.026;4.472;2022-09-24T04:39:30;-5994.34;;;17.64
74449;BMP280;62878;51.026;4.472;2022-09-24T04:41:55;-5993.69;;;17.60
74449;BMP280;62878;51.026;4.472;2022-09-24T04:44:21;-5994.34;;;17.64
74449;BMP280;62878;51.026;4.472;2022-09-24T04:46:47;-5994.53;;;17.65
74449;BMP280;62878;51.026;4.472;2022-09-24T04:49:13;-5994.28;;;17.63
74449;BMP280;62878;51.026;4.472;2022-09-24T04:51:38;-5994.34;;;17.64
74449;BMP280;62878;51.026;4.472;2022-09-24T04:54:04;-5994.03;;;17.62
74449;BMP280;62878;51.026;4.472;2022-09-24T04:56:30;-5994.28;;;17.63
74449;BMP280;62878;51.026;4.472;2022-09-24T04:58:56;-5993.69;;;17.60
74449;BMP280;62878;51.026;4.472;2022-09-24T05:01:22;-5990.16;;;17.38
74449;BMP280;62878;51.026;4.472;2022-09-24T05:03:48;-5992.00;;;17.50
74449;BMP280;62878;51.026;4.472;2022-09-24T05:06:14;-5992.50;;;17.53
74449;BMP280;62878;51.026;4.472;2022-09-24T05:08:40;-5993.53;;;17.59
74449;BMP280;62878;51.026;4.472;2022-09-24T05:11:07;-5994.19;;;17.63
74449;BMP280;62878;51.026;4.472;2022-09-24T05:13:32;-5993.84;;;17.61
74449;BMP280;62878;51.026;4.472;2022-09-24T05:15:59;-5993.84;;;17.61
74449;BMP280;62878;51.026;4.472;2022-09-24T05:18:25;-5994.03;;;17.62
74449;BMP280;62878;51.026;4.472;2022-09-24T05:20:51;-5993.78;;;17.60
74449;BMP280;62878;51.026;4.472;2022-09-24T05:23:16;-5993.84;;;17.61
74449;BMP280;62878;51.026;4.472;2022-09-24T05:25:42;-5992.84;;;17.55
74449;BMP280;62878;51.026;4.472;2022-09-24T05:28:25;-5993.78;;;17.60
74449;BMP280;62878;51.026;4.472;2022-09-24T05:30:55;-5984.34;;;17.04
74449;BMP280;62878;51.026;4.472;2022-09-24T05:33:21;-5990.31;;;17.39
74449;BMP280;62878;51.026;4.472;2022-09-24T05:35:52;-5993.84;;;17.61
74449;BMP280;62878;51.026;4.472;2022-09-24T05:38:18;-5991.50;;;17.47
74449;BMP280;62878;51.026;4.472;2022-09-24T05:40:43;-5993.69;;;17.60
74449;BMP280;62878;51.026;4.472;2022-09-24T05:43:16;-5991.84;;;17.49
74449;BMP280;62878;51.026;4.472;2022-09-24T05:45:44;-5993.53;;;17.59
74449;BMP280;62878;51.026;4.472;2022-09-24T05:48:09;-5993.09;;;17.56
74449;BMP280;62878;51.026;4.472;2022-09-24T05:50:35;-5987.63;;;17.23
74449;BMP280;62878;51.026;4.472;2022-09-24T05:53:00;-5992.34;;;17.52
74449;BMP280;62878;51.026;4.472;2022-09-24T05:55:26;-5992.44;;;17.52
74449;BMP280;62878;51.026;4.472;2022-09-24T05:57:52;-5986.78;;;17.18
74449;BMP280;62878;51.026;4.472;2022-09-24T06:00:18;-5992.50;;;17.53
74449;BMP280;62878;51.026;4.472;2022-09-24T06:02:43;-5992.34;;;17.52
74449;BMP280;62878;51.026;4.472;2022-09-24T06:05:09;-5989.81;;;17.36
74449;BMP280;62878;51.026;4.472;2022-09-24T06:07:35;-5990.00;;;17.37
74449;BMP280;62878;51.026;4.472;2022-09-24T06:10:00;-5995.03;;;17.68
74449;BMP280;62878;51.026;4.472;2022-09-24T06:12:27;-5996.38;;;17.76
74449;BMP280;62878;51.026;4.472;2022-09-24T06:14:53;-5994.03;;;17.62
74449;BMP280;62878;51.026;4.472;2022-09-24T06:17:19;-5996.13;;;17.74
74449;BMP280;62878;51.026;4.472;2022-09-24T06:19:46;-5991.75;;;17.48
74449;BMP280;62878;51.026;4.472;2022-09-24T06:22:12;-5994.63;;;17.65
74449;BMP280;62878;51.026;4.472;2022-09-24T06:24:37;-6002.44;;;18.12
74449;BMP280;62878;51.026;4.472;2022-09-24T06:27:03;-5999.75;;;17.96
74449;BMP280;62878;51.026;4.472;2022-09-24T06:29:29;-6002.59;;;18.13
74449;BMP280;62878;51.026;4.472;2022-09-24T06:31:54;-5999.41;;;17.94
74449;BMP280;62878;51.026;4.472;2022-09-24T06:34:19;-5998.81;;;17.90
74449;BMP280;62878;51.026;4.472;2022-09-24T06:36:44;-5999.25;;;17.93
74449;BMP280;62878;51.026;4.472;2022-09-24T06:39:10;-5998.56;;;17.89
74449;BMP280;62878;51.026;4.472;2022-09-24T06:41:35;-5991.66;;;17.48
74449;BMP280;62878;51.026;4.472;2022-09-24T06:44:00;-5992.59;;;17.53
74449;BMP280;62878;51.026;4.472;2022-09-24T06:46:26;-5995.97;;;17.73
74449;BMP280;62878;51.026;4.472;2022-09-24T06:48:51;-6001.09;;;18.04
74449;BMP280;62878;51.026;4.472;2022-09-24T06:51:19;-6002.09;;;18.10
74449;BMP280;62878;51.026;4.472;2022-09-24T06:53:44;-6002.44;;;18.12
74449;BMP280;62878;51.026;4.472;2022-09-24T06:56:09;-6002.94;;;18.15
74449;BMP280;62878;51.026;4.472;2022-09-24T06:58:35;-6001.16;;;18.05
74449;BMP280;62878;51.026;4.472;2022-09-24T07:01:02;-6003.34;;;18.18
74449;BMP280;62878;51.026;4.472;2022-09-24T07:03:32;-6003.44;;;18.18
74449;BMP280;62878;51.026;4.472;2022-09-24T07:06:03;-6003.53;;;18.19
74449;BMP280;62878;51.026;4.472;2022-09-24T07:08:29;-6003.69;;;18.20
74449;BMP280;62878;51.026;4.472;2022-09-24T07:10:54;-5995.63;;;17.71
74449;BMP280;62878;51.026;4.472;2022-09-24T07:13:20;-6003.63;;;18.19
74449;BMP280;62878;51.026;4.472;2022-09-24T07:15:48;-6003.94;;;18.21
74449;BMP280;62878;51.026;4.472;2022-09-24T07:18:14;-6004.03;;;18.22
74449;BMP280;62878;51.026;4.472;2022-09-24T07:20:39;-6001.50;;;18.07
74449;BMP280;62878;51.026;4.472;2022-09-24T07:23:06;-6003.94;;;18.21
74449;BMP280;62878;51.026;4.472;2022-09-24T07:25:32;-6003.78;;;18.20
74449;BMP280;62878;51.026;4.472;2022-09-24T07:28:09;-6004.03;;;18.22
74449;BMP280;62878;51.026;4.472;2022-09-24T07:30:35;-6003.94;;;18.21
74449;BMP280;62878;51.026;4.472;2022-09-24T07:33:02;-6003.94;;;18.21
74449;BMP280;62878;51.026;4.472;2022-09-24T07:35:28;-6004.13;;;18.22
74449;BMP280;62878;51.026;4.472;2022-09-24T07:37:57;-6004.28;;;18.23
74449;BMP280;62878;51.026;4.472;2022-09-24T07:40:23;-6004.38;;;18.24
74449;BMP280;62878;51.026;4.472;2022-09-24T07:42:48;-6000.06;;;17.98
74449;BMP280;62878;51.026;4.472;2022-09-24T07:45:14;-6002.53;;;18.13
74449;BMP280;62878;51.026;4.472;2022-09-24T07:47:41;-6004.13;;;18.22
74449;BMP280;62878;51.026;4.472;2022-09-24T07:50:07;-6004.13;;;18.22
74449;BMP280;62878;51.026;4.472;2022-09-24T07:52:32;-6001.69;;;18.08
74449;BMP280;62878;51.026;4.472;2022-09-24T07:54:58;-6003.09;;;18.16
74449;BMP280;62878;51.026;4.472;2022-09-24T07:57:24;-6001.44;;;18.06
74449;BMP280;62878;51.026;4.472;2022-09-24T07:59:51;-6003.63;;;18.19
74449;BMP280;62878;51.026;4.472;2022-09-24T08:02:17;-6004.44;;;18.24
74449;BMP280;62878;51.026;4.472;2022-09-24T08:04:43;-6002.69;;;18.14
74449;BMP280;62878;51.026;4.472;2022-09-24T08:07:10;-6003.34;;;18.18
74449;BMP280;62878;51.026;4.472;2022-09-24T08:09:35;-5998.56;;;17.89
74449;BMP280;62878;51.026;4.472;2022-09-24T08:12:01;-6004.44;;;18.24
74449;BMP280;62878;51.026;4.472;2022-09-24T08:14:26;-6003.44;;;18.18
74449;BMP280;62878;51.026;4.472;2022-09-24T08:16:51;-6004.53;;;18.25
74449;BMP280;62878;51.026;4.472;2022-09-24T08:19:17;-6004.38;;;18.24
74449;BMP280;62878;51.026;4.472;2022-09-24T08:21:42;-6004.28;;;18.23
74449;BMP280;62878;51.026;4.472;2022-09-24T08:24:08;-6002.53;;;18.13
74449;BMP280;62878;51.026;4.472;2022-09-24T08:26:33;-6003.78;;;18.20
74449;BMP280;62878;51.026;4.472;2022-09-24T08:28:59;-6004.44;;;18.24
74449;BMP280;62878;51.026;4.472;2022-09-24T08:31:24;-6004.44;;;18.24
74449;BMP280;62878;51.026;4.472;2022-09-24T08:33:50;-6004.63;;;18.25
74449;BMP280;62878;51.026;4.472;2022-09-24T08:36:16;-6004.69;;;18.26
74449;BMP280;62878;51.026;4.472;2022-09-24T08:38:43;-6004.78;;;18.26
74449;BMP280;62878;51.026;4.472;2022-09-24T08:41:20;-6004.13;;;18.22
74449;BMP280;62878;51.026;4.472;2022-09-24T08:46:23;-6002.78;;;18.14
74449;BMP280;62878;51.026;4.472;2022-09-24T08:49:11;-6001.59;;;18.07
74449;BMP280;62878;51.026;4.472;2022-09-24T08:51:49;-6004.38;;;18.24
74449;BMP280;62878;51.026;4.472;2022-09-24T08:54:21;-6004.63;;;18.25
74449;BMP280;62878;51.026;4.472;2022-09-24T08:56:48;-6005.13;;;18.28
74449;BMP280;62878;51.026;4.472;2022-09-24T09:08:51;-6005.03;;;18.28
74449;BMP280;62878;51.026;4.472;2022-09-24T09:10:53;-6005.13;;;18.28
74449;BMP280;62878;51.026;4.472;2022-09-24T09:13:27;-6005.13;;;18.28
74449;BMP280;62878;51.026;4.472;2022-09-24T09:16:04;-6004.97;;;18.27
74449;BMP280;62878;51.026;4.472;2022-09-24T09:18:41;-6004.28;;;18.23
74449;BMP280;62878;51.026;4.472;2022-09-24T09:21:25;-6002.78;;;18.14
74449;BMP280;62878;51.026;4.472;2022-09-24T09:23:56;-6004.44;;;18.24
74449;BMP280;62878;51.026;4.472;2022-09-24T09:26:23;-6004.28;;;18.23
74449;BMP280;62878;51.026;4.472;2022-09-24T09:28:49;-6002.59;;;18.13
74449;BMP280;62878;51.026;4.472;2022-09-24T09:41:49;-5993.19;;;17.57
74449;BMP280;62878;51.026;4.472;2022-09-24T09:44:23;-5990.84;;;17.43
74449;BMP280;62878;51.026;4.472;2022-09-24T09:46:53;-5995.88;;;17.73
74449;BMP280;62878;51.026;4.472;2022-09-24T09:49:20;-5998.72;;;17.90
74449;BMP280;62878;51.026;4.472;2022-09-24T09:51:48;-5993.94;;;17.61
74449;BMP280;62878;51.026;4.472;2022-09-24T09:54:13;-6001.44;;;18.06
74449;BMP280;62878;51.026;4.472;2022-09-24T09:56:46;-6001.75;;;18.08
74449;BMP280;62878;51.026;4.472;2022-09-24T10:01:39;-6002.09;;;18.10
74449;BMP280;62878;51.026;4.472;2022-09-24T10:04:27;-6002.44;;;18.12
74449;BMP280;62878;51.026;4.472;2022-09-24T10:07:14;-6002.53;;;18.13
74449;BMP280;62878;51.026;4.472;2022-09-24T10:09:41;-6001.69;;;18.08
74449;BMP280;62878;51.026;4.472;2022-09-24T10:14:34;-6002.25;;;18.11
74449;BMP280;62878;51.026;4.472;2022-09-24T10:16:59;-5998.72;;;17.90
74449;BMP280;62878;51.026;4.472;2022-09-24T10:19:32;-6002.44;;;18.12
74449;BMP280;62878;51.026;4.472;2022-09-24T10:22:07;-6002.25;;;18.11
74449;BMP280;62878;51.026;4.472;2022-09-24T10:24:34;-6002.34;;;18.12
74449;BMP280;62878;51.026;4.472;2022-09-24T10:27:09;-6002.19;;;18.11
74449;BMP280;62878;51.026;4.472;2022-09-24T10:29:35;-6002.34;;;18.12
74449;BMP280;62878;51.026;4.472;2022-09-24T10:32:22;-6002.34;;;18.12
74449;BMP280;62878;51.026;4.472;2022-09-24T10:34:59;-6002.19;;;18.11
74449;BMP280;62878;51.026;4.472;2022-09-24T10:37:25;-6000.59;;;18.01
74449;BMP280;62878;51.026;4.472;2022-09-24T10:40:30;-6001.94;;;18.09
74449;BMP280;62878;51.026;4.472;2022-09-24T10:43:03;-6000.41;;;18.00
74449;BMP280;62878;51.026;4.472;2022-09-24T10:48:25;-6002.19;;;18.11
74449;BMP280;62878;51.026;4.472;2022-09-24T10:53:47;-5998.16;;;17.86
74449;BMP280;62878;51.026;4.472;2022-09-24T10:56:35;-6001.94;;;18.09
74449;BMP280;62878;51.026;4.472;2022-09-24T10:59:15;-6001.75;;;18.08
74449;BMP280;62878;51.026;4.472;2022-09-24T11:01:47;-6001.59;;;18.07
74449;BMP280;62878;51.026;4.472;2022-09-24T11:04:19;-6001.84;;;18.09
74449;BMP280;62878;51.026;4.472;2022-09-24T11:15:49;-6001.44;;;18.06
74449;BMP280;62878;51.026;4.472;2022-09-24T11:18:41;-6001.59;;;18.07
74449;BMP280;62878;51.026;4.472;2022-09-24T11:24:44;-6000.91;;;18.03
74449;BMP280;62878;51.026;4.472;2022-09-24T11:39:33;-6000.66;;;18.02
74449;BMP280;62878;51.026;4.472;2022-09-24T11:42:28;-6001.50;;;18.07
74449;BMP280;62878;51.026;4.472;2022-09-24T11:53:03;-5997.22;;;17.81
74449;BMP280;62878;51.026;4.472;2022-09-24T11:55:42;-6001.00;;;18.04
74449;BMP280;62878;51.026;4.472;2022-09-24T11:58:24;-5998.22;;;17.87
74449;BMP280;62878;51.026;4.472;2022-09-24T12:01:02;-6001.34;;;18.06
74449;BMP280;62878;51.026;4.472;2022-09-24T12:06:13;-6001.16;;;18.05
74449;BMP280;62878;51.026;4.472;2022-09-24T12:08:58;-6000.75;;;18.02
74449;BMP280;62878;51.026;4.472;2022-09-24T12:11:31;-5997.63;;;17.83
74449;BMP280;62878;51.026;4.472;2022-09-24T12:14:20;-5997.31;;;17.81
74449;BMP280;62878;51.026;4.472;2022-09-24T12:16:50;-6000.34;;;18.00
74449;BMP280;62878;51.026;4.472;2022-09-24T12:19:20;-6000.91;;;18.03
74449;BMP280;62878;51.026;4.472;2022-09-24T12:21:50;-6000.75;;;18.02
74449;BMP280;62878;51.026;4.472;2022-09-24T12:24:29;-6000.91;;;18.03
74449;BMP280;62878;51.026;4.472;2022-09-24T12:27:01;-6000.66;;;18.02
74449;BMP280;62878;51.026;4.472;2022-09-24T12:38:46;-6000.59;;;18.01
74449;BMP280;62878;51.026;4.472;2022-09-24T12:44:12;-6000.50;;;18.01
74449;BMP280;62878;51.026;4.472;2022-09-24T12:46:49;-6000.34;;;18.00
74449;BMP280;62878;51.026;4.472;2022-09-24T12:49:38;-6000.25;;;17.99
74449;BMP280;62878;51.026;4.472;2022-09-24T12:52:15;-6000.16;;;17.99
74449;BMP280;62878;51.026;4.472;2022-09-24T12:54:42;-5997.91;;;17.85
74449;BMP280;62878;51.026;4.472;2022-09-24T12:57:20;-5999.91;;;17.97
74449;BMP280;62878;51.026;4.472;2022-09-24T13:02:20;-5999.91;;;17.97
74449;BMP280;62878;51.026;4.472;2022-09-24T13:05:11;-5999.00;;;17.92
74449;BMP280;62878;51.026;4.472;2022-09-24T13:07:41;-5989.66;;;17.35
74449;BMP280;62878;51.026;4.472;2022-09-24T13:12:41;-5994.69;;;17.66
74449;BMP280;62878;51.026;4.472;2022-09-24T13:17:44;-5999.75;;;17.96
74449;BMP280;62878;51.026;4.472;2022-09-24T13:20:23;-5999.75;;;17.96
74449;BMP280;62878;51.026;4.472;2022-09-24T13:26:07;-5999.66;;;17.96
74449;BMP280;62878;51.026;4.472;2022-09-24T13:34:33;-5999.41;;;17.94
74449;BMP280;62878;51.026;4.472;2022-09-24T13:37:13;-5997.72;;;17.84
74449;BMP280;62878;51.026;4.472;2022-09-24T13:39:58;-5999.41;;;17.94
74449;BMP280;62878;51.026;4.472;2022-09-24T13:45:31;-5998.91;;;17.91
74449;BMP280;62878;51.026;4.472;2022-09-24T13:48:01;-5999.41;;;17.94
74449;BMP280;62878;51.026;4.472;2022-09-24T13:50:34;-5999.41;;;17.94
74449;BMP280;62878;51.026;4.472;2022-09-24T13:53:14;-5999.16;;;17.92
74449;BMP280;62878;51.026;4.472;2022-09-24T13:55:47;-5999.41;;;17.94
74449;BMP280;62878;51.026;4.472;2022-09-24T13:58:31;-5999.16;;;17.92
74449;BMP280;62878;51.026;4.472;2022-09-24T14:01:15;-5999.25;;;17.93
74449;BMP280;62878;51.026;4.472;2022-09-24T14:03:42;-5999.00;;;17.92
74449;BMP280;62878;51.026;4.472;2022-09-24T14:06:17;-5999.16;;;17.92
74449;BMP280;62878;51.026;4.472;2022-09-24T14:08:46;-5999.25;;;17.93
74449;BMP280;62878;51.026;4.472;2022-09-24T14:11:18;-5996.72;;;17.78
74449;BMP280;62878;51.026;4.472;2022-09-24T14:13:44;-5999.25;;;17.93
74449;BMP280;62878;51.026;4.472;2022-09-24T14:16:18;-5999.00;;;17.92
74449;BMP280;62878;51.026;4.472;2022-09-24T14:18:44;-5998.91;;;17.91
74449;BMP280;62878;51.026;4.472;2022-09-24T14:29:03;-5999.06;;;17.92
74449;BMP280;62878;51.026;4.472;2022-09-24T14:31:31;-5997.56;;;17.83
74449;BMP280;62878;51.026;4.472;2022-09-24T14:33:58;-5998.81;;;17.90
74449;BMP280;62878;51.026;4.472;2022-09-24T14:36:26;-5997.97;;;17.85
74449;BMP280;62878;51.026;4.472;2022-09-24T14:39:00;-5998.81;;;17.90
74449;BMP280;62878;51.026;4.472;2022-09-24T14:41:29;-5994.78;;;17.66
74449;BMP280;62878;51.026;4.472;2022-09-24T14:43:59;-5998.66;;;17.89
74449;BMP280;62878;51.026;4.472;2022-09-24T14:46:32;-5998.66;;;17.89
74449;BMP280;62878;51.026;4.472;2022-09-24T14:49:19;-5998.72;;;17.90
74449;BMP280;62878;51.026;4.472;2022-09-24T14:56:52;-5996.63;;;17.77
74449;BMP280;62878;51.026;4.472;2022-09-24T14:59:29;-5996.38;;;17.76
74449;BMP280;62878;51.026;4.472;2022-09-24T15:04:49;-5998.41;;;17.88
74449;BMP280;62878;51.026;4.472;2022-09-24T15:07:18;-5998.41;;;17.88
74449;BMP280;62878;51.026;4.472;2022-09-24T15:09:53;-5997.91;;;17.85
74449;BMP280;62878;51.026;4.472;2022-09-24T15:12:22;-5998.41;;;17.88
74449;BMP280;62878;51.026;4.472;2022-09-24T15:17:41;-5998.22;;;17.87
74449;BMP280;62878;51.026;4.472;2022-09-24T15:20:09;-5998.31;;;17.87
74449;BMP280;62878;51.026;4.472;2022-09-24T15:22:35;-5997.56;;;17.83
74449;BMP280;62878;51.026;4.472;2022-09-24T15:25:00;-5996.97;;;17.79
74449;BMP280;62878;51.026;4.472;2022-09-24T15:27:31;-5998.31;;;17.87
74449;BMP280;62878;51.026;4.472;2022-09-24T15:29:58;-5996.88;;;17.79
74449;BMP280;62878;51.026;4.472;2022-09-24T15:32:26;-5998.22;;;17.87
74449;BMP280;62878;51.026;4.472;2022-09-24T15:34:52;-5991.91;;;17.49
74449;BMP280;62878;51.026;4.472;2022-09-24T15:37:21;-5998.16;;;17.86
74449;BMP280;62878;51.026;4.472;2022-09-24T15:39:47;-5995.19;;;17.69
74449;BMP280;62878;51.026;4.472;2022-09-24T15:42:18;-5998.31;;;17.87
74449;BMP280;62878;51.026;4.472;2022-09-24T15:44:44;-5998.22;;;17.87
74449;BMP280;62878;51.026;4.472;2022-09-24T15:47:11;-5998.22;;;17.87
74449;BMP280;62878;51.026;4.472;2022-09-24T15:49:36;-5997.97;;;17.85
74449;BMP280;62878;51.026;4.472;2022-09-24T15:52:06;-5998.06;;;17.86
74449;BMP280;62878;51.026;4.472;2022-09-24T15:54:32;-5997.91;;;17.85
74449;BMP280;62878;51.026;4.472;2022-09-24T15:56:57;-5994.63;;;17.65
74449;BMP280;62878;51.026;4.472;2022-09-24T15:59:23;-5997.81;;;17.84
74449;BMP280;62878;51.026;4.472;2022-09-24T16:01:50;-5995.38;;;17.70
74449;BMP280;62878;51.026;4.472;2022-09-24T16:04:17;-5996.97;;;17.79
74449;BMP280;62878;51.026;4.472;2022-09-24T16:06:42;-5994.34;;;17.64
74449;BMP280;62878;51.026;4.472;2022-09-24T16:09:07;-5997.91;;;17.85
74449;BMP280;62878;51.026;4.472;2022-09-24T16:11:33;-5995.88;;;17.73
74449;BMP280;62878;51.026;4.472;2022-09-24T16:13:58;-5996.03;;;17.74
74449;BMP280;62878;51.026;4.472;2022-09-24T16:16:23;-5997.63;;;17.83
74449;BMP280;62878;51.026;4.472;2022-09-24T16:18:49;-5997.72;;;17.84
74449;BMP280;62878;51.026;4.472;2022-09-24T16:21:14;-5997.47;;;17.82
74449;BMP280;62878;51.026;4.472;2022-09-24T16:23:40;-5995.38;;;17.70
74449;BMP280;62878;51.026;4.472;2022-09-24T16:26:05;-5997.38;;;17.82
74449;BMP280;62878;51.026;4.472;2022-09-24T16:28:31;-5997.56;;;17.83
74449;BMP280;62878;51.026;4.472;2022-09-24T16:30:56;-5997.56;;;17.83
74449;BMP280;62878;51.026;4.472;2022-09-24T16:33:22;-5994.88;;;17.67
74449;BMP280;62878;51.026;4.472;2022-09-24T16:35:47;-5997.38;;;17.82
74449;BMP280;62878;51.026;4.472;2022-09-24T16:38:13;-5997.38;;;17.82
74449;BMP280;62878;51.026;4.472;2022-09-24T16:40:38;-5997.22;;;17.81